sensor_id;sensor_type;location;lat;lon;timestamp;P1;durP1;ratioP1;P2;durP2;ratioP2
18532;SDS011;9396;51.510;11.934;2023-06-10T00:02:11;7.37;;;3.40;;
18532;SDS011;9396;51.510;11.934;2023-06-10T00:04:38;6.33;;;3.33;;
18532;SDS011;9396;51.510;11.934;2023-06-10T00:07:05;6.57;;;3.33;;
18532;SDS011;9396;51.510;11.934;2023-06-10T00:09:33;7.03;;;3.30;;
18532;SDS011;9396;51.510;11.934;2023-06-10T00:12:01;6.63;;;3.50;;
18532;SDS011;9396;51.510;11.934;2023-06-10T00:14:30;11.53;;;3.60;;
18532;SDS011;9396;51.510;11.934;2023-06-10T00:16:56;9.87;;;3.87;;
18532;SDS011;9396;51.510;11.934;2023-06-10T00:19:24;8.77;;;3.40;;
18532;SDS011;9396;51.510;11.934;2023-06-10T00:21:55;6.80;;;3.10;;
18532;SDS011;9396;51.510;11.934;2023-06-10T00:24:22;6.10;;;3.07;;
18532;SDS011;9396;51.510;11.934;2023-06-10T00:26:48;8.57;;;3.40;;
18532;SDS011;9396;51.510;11.934;2023-06-10T00:29:15;7.13;;;3.30;;
18532;SDS011;9396;51.510;11.934;2023-06-10T00:31:44;7.00;;;3.33;;
18532;SDS011;9396;51.510;11.934;2023-06-10T00:34:11;7.57;;;3.40;;
18532;SDS011;9396;51.510;11.934;2023-06-10T00:36:38;4.70;;;3.40;;
18532;SDS011;9396;51.510;11.934;2023-06-10T00:39:04;5.13;;;3.10;;
18532;SDS011;9396;51.510;11.934;2023-06-10T00:41:32;7.17;;;2.90;;
18532;SDS011;9396;51.510;11.934;2023-06-10T00:43:59;8.03;;;3.50;;
18532;SDS011;9396;51.510;11.934;2023-06-10T00:46:25;8.27;;;3.83;;
18532;SDS011;9396;51.510;11.934;2023-06-10T00:48:54;5.40;;;3.27;;
18532;SDS011;9396;51.510;11.934;2023-06-10T00:51:20;6.03;;;3.23;;
18532;SDS011;9396;51.510;11.934;2023-06-10T00:53:48;5.50;;;3.27;;
18532;SDS011;9396;51.510;11.934;2023-06-10T00:56:15;6.17;;;2.90;;
18532;SDS011;9396;51.510;11.934;2023-06-10T00:58:42;6.97;;;3.60;;
18532;SDS011;9396;51.510;11.934;2023-06-10T01:01:09;8.33;;;3.90;;
18532;SDS011;9396;51.510;11.934;2023-06-10T01:03:36;6.07;;;3.03;;
18532;SDS011;9396;51.510;11.934;2023-06-10T01:06:06;8.33;;;3.70;;
18532;SDS011;9396;51.510;11.934;2023-06-10T01:08:38;9.57;;;3.33;;
18532;SDS011;9396;51.510;11.934;2023-06-10T01:11:13;6.10;;;3.00;;
18532;SDS011;9396;51.510;11.934;2023-06-10T01:13:47;5.70;;;3.27;;
18532;SDS011;9396;51.510;11.934;2023-06-10T01:16:17;5.37;;;3.40;;
18532;SDS011;9396;51.510;11.934;2023-06-10T01:18:44;7.90;;;3.47;;
18532;SDS011;9396;51.510;11.934;2023-06-10T01:21:14;6.40;;;3.70;;
18532;SDS011;9396;51.510;11.934;2023-06-10T01:23:45;8.17;;;4.00;;
18532;SDS011;9396;51.510;11.934;2023-06-10T01:26:12;10.80;;;3.60;;
18532;SDS011;9396;51.510;11.934;2023-06-10T01:28:40;7.10;;;3.80;;
18532;SDS011;9396;51.510;11.934;2023-06-10T01:31:16;9.30;;;3.73;;
18532;SDS011;9396;51.510;11.934;2023-06-10T01:33:49;7.93;;;4.20;;
18532;SDS011;9396;51.510;11.934;2023-06-10T01:36:20;5.30;;;3.80;;
18532;SDS011;9396;51.510;11.934;2023-06-10T01:38:50;6.43;;;3.67;;
18532;SDS011;9396;51.510;11.934;2023-06-10T01:41:19;8.00;;;3.53;;
18532;SDS011;9396;51.510;11.934;2023-06-10T01:43:47;8.37;;;3.57;;
18532;SDS011;9396;51.510;11.934;2023-06-10T01:46:14;10.13;;;3.50;;
18532;SDS011;9396;51.510;11.934;2023-06-10T01:48:44;8.33;;;3.93;;
18532;SDS011;9396;51.510;11.934;2023-06-10T01:51:11;6.17;;;3.53;;
18532;SDS011;9396;51.510;11.934;2023-06-10T01:53:39;11.17;;;4.27;;
18532;SDS011;9396;51.510;11.934;2023-06-10T01:56:06;7.90;;;3.90;;
18532;SDS011;9396;51.510;11.934;2023-06-10T01:58:32;8.13;;;3.97;;
18532;SDS011;9396;51.510;11.934;2023-06-10T02:00:59;8.80;;;3.90;;
18532;SDS011;9396;51.510;11.934;2023-06-10T02:03:26;5.30;;;3.63;;
18532;SDS011;9396;51.510;11.934;2023-06-10T02:05:52;9.90;;;4.00;;
18532;SDS011;9396;51.510;11.934;2023-06-10T02:08:19;7.80;;;3.93;;
18532;SDS011;9396;51.510;11.934;2023-06-10T02:10:47;8.77;;;4.47;;
18532;SDS011;9396;51.510;11.934;2023-06-10T02:13:13;8.83;;;4.07;;
18532;SDS011;9396;51.510;11.934;2023-06-10T02:15:40;10.93;;;4.37;;
18532;SDS011;9396;51.510;11.934;2023-06-10T02:18:07;7.67;;;4.00;;
18532;SDS011;9396;51.510;11.934;2023-06-10T02:20:34;9.97;;;4.37;;
18532;SDS011;9396;51.510;11.934;2023-06-10T02:23:01;7.93;;;4.83;;
18532;SDS011;9396;51.510;11.934;2023-06-10T02:25:28;8.97;;;4.87;;
18532;SDS011;9396;51.510;11.934;2023-06-10T02:27:56;14.33;;;4.43;;
18532;SDS011;9396;51.510;11.934;2023-06-10T02:30:23;9.07;;;4.60;;
18532;SDS011;9396;51.510;11.934;2023-06-10T02:32:49;11.47;;;4.60;;
18532;SDS011;9396;51.510;11.934;2023-06-10T02:35:17;5.97;;;4.20;;
18532;SDS011;9396;51.510;11.934;2023-06-10T02:37:44;13.83;;;5.00;;
18532;SDS011;9396;51.510;11.934;2023-06-10T02:40:11;11.97;;;4.90;;
18532;SDS011;9396;51.510;11.934;2023-06-10T02:42:37;13.70;;;5.50;;
18532;SDS011;9396;51.510;11.934;2023-06-10T02:45:06;11.17;;;5.23;;
18532;SDS011;9396;51.510;11.934;2023-06-10T02:47:34;7.70;;;4.50;;
18532;SDS011;9396;51.510;11.934;2023-06-10T02:50:00;9.80;;;4.60;;
18532;SDS011;9396;51.510;11.934;2023-06-10T02:52:28;13.87;;;4.70;;
18532;SDS011;9396;51.510;11.934;2023-06-10T02:54:56;8.57;;;4.70;;
18532;SDS011;9396;51.510;11.934;2023-06-10T02:57:23;7.93;;;4.43;;
18532;SDS011;9396;51.510;11.934;2023-06-10T02:59:49;6.87;;;4.57;;
18532;SDS011;9396;51.510;11.934;2023-06-10T03:02:19;10.60;;;4.80;;
18532;SDS011;9396;51.510;11.934;2023-06-10T03:04:47;10.40;;;4.97;;
18532;SDS011;9396;51.510;11.934;2023-06-10T03:07:15;9.47;;;4.90;;
18532;SDS011;9396;51.510;11.934;2023-06-10T03:09:43;10.57;;;4.70;;
18532;SDS011;9396;51.510;11.934;2023-06-10T03:12:09;6.43;;;4.33;;
18532;SDS011;9396;51.510;11.934;2023-06-10T03:14:36;8.40;;;4.93;;
18532;SDS011;9396;51.510;11.934;2023-06-10T03:17:04;9.23;;;5.13;;
18532;SDS011;9396;51.510;11.934;2023-06-10T03:19:32;7.83;;;4.87;;
18532;SDS011;9396;51.510;11.934;2023-06-10T03:22:06;10.10;;;5.17;;
18532;SDS011;9396;51.510;11.934;2023-06-10T03:24:35;9.37;;;5.50;;
18532;SDS011;9396;51.510;11.934;2023-06-10T03:27:05;6.73;;;4.93;;
18532;SDS011;9396;51.510;11.934;2023-06-10T03:29:32;11.10;;;5.47;;
18532;SDS011;9396;51.510;11.934;2023-06-10T03:31:59;8.20;;;4.83;;
18532;SDS011;9396;51.510;11.934;2023-06-10T03:34:25;10.50;;;5.30;;
18532;SDS011;9396;51.510;11.934;2023-06-10T03:36:53;10.63;;;5.10;;
18532;SDS011;9396;51.510;11.934;2023-06-10T03:39:20;7.97;;;4.97;;
18532;SDS011;9396;51.510;11.934;2023-06-10T03:41:48;10.97;;;5.63;;
18532;SDS011;9396;51.510;11.934;2023-06-10T03:44:14;9.27;;;5.33;;
18532;SDS011;9396;51.510;11.934;2023-06-10T03:46:41;9.80;;;4.70;;
18532;SDS011;9396;51.510;11.934;2023-06-10T03:49:08;11.17;;;5.30;;
18532;SDS011;9396;51.510;11.934;2023-06-10T03:51:35;10.40;;;6.07;;
18532;SDS011;9396;51.510;11.934;2023-06-10T03:54:04;11.20;;;5.30;;
18532;SDS011;9396;51.510;11.934;2023-06-10T03:56:31;11.53;;;5.07;;
18532;SDS011;9396;51.510;11.934;2023-06-10T03:58:58;11.47;;;5.07;;
18532;SDS011;9396;51.510;11.934;2023-06-10T04:01:25;10.33;;;5.13;;
18532;SDS011;9396;51.510;11.934;2023-06-10T04:03:52;7.57;;;4.80;;
18532;SDS011;9396;51.510;11.934;2023-06-10T04:06:19;12.03;;;5.90;;
18532;SDS011;9396;51.510;11.934;2023-06-10T04:08:47;12.13;;;5.90;;
18532;SDS011;9396;51.510;11.934;2023-06-10T04:11:15;9.00;;;5.10;;
18532;SDS011;9396;51.510;11.934;2023-06-10T04:13:42;10.03;;;5.43;;
18532;SDS011;9396;51.510;11.934;2023-06-10T04:16:11;10.87;;;5.00;;
18532;SDS011;9396;51.510;11.934;2023-06-10T04:18:37;7.77;;;5.40;;
18532;SDS011;9396;51.510;11.934;2023-06-10T04:21:04;13.37;;;5.30;;
18532;SDS011;9396;51.510;11.934;2023-06-10T04:23:31;10.40;;;5.70;;
18532;SDS011;9396;51.510;11.934;2023-06-10T04:25:57;9.33;;;5.33;;
18532;SDS011;9396;51.510;11.934;2023-06-10T04:28:26;10.53;;;5.40;;
18532;SDS011;9396;51.510;11.934;2023-06-10T04:30:53;17.53;;;7.07;;
18532;SDS011;9396;51.510;11.934;2023-06-10T04:33:19;11.33;;;6.70;;
18532;SDS011;9396;51.510;11.934;2023-06-10T04:35:46;12.53;;;5.97;;
18532;SDS011;9396;51.510;11.934;2023-06-10T04:38:13;11.10;;;5.13;;
18532;SDS011;9396;51.510;11.934;2023-06-10T04:40:40;9.80;;;5.23;;
18532;SDS011;9396;51.510;11.934;2023-06-10T04:43:07;6.37;;;4.73;;
18532;SDS011;9396;51.510;11.934;2023-06-10T04:45:35;7.87;;;5.10;;
18532;SDS011;9396;51.510;11.934;2023-06-10T04:48:01;10.47;;;5.27;;
18532;SDS011;9396;51.510;11.934;2023-06-10T04:50:28;9.30;;;5.97;;
18532;SDS011;9396;51.510;11.934;2023-06-10T04:52:55;14.17;;;5.47;;
18532;SDS011;9396;51.510;11.934;2023-06-10T04:55:22;12.80;;;5.00;;
18532;SDS011;9396;51.510;11.934;2023-06-10T04:57:49;12.10;;;5.27;;
18532;SDS011;9396;51.510;11.934;2023-06-10T05:00:16;9.30;;;5.43;;
18532;SDS011;9396;51.510;11.934;2023-06-10T05:02:44;11.47;;;5.80;;
18532;SDS011;9396;51.510;11.934;2023-06-10T05:05:14;8.60;;;5.33;;
18532;SDS011;9396;51.510;11.934;2023-06-10T05:07:41;13.27;;;5.73;;
18532;SDS011;9396;51.510;11.934;2023-06-10T05:10:08;9.70;;;5.50;;
18532;SDS011;9396;51.510;11.934;2023-06-10T05:12:38;8.60;;;5.07;;
18532;SDS011;9396;51.510;11.934;2023-06-10T05:15:05;12.17;;;5.57;;
18532;SDS011;9396;51.510;11.934;2023-06-10T05:17:32;13.00;;;5.93;;
18532;SDS011;9396;51.510;11.934;2023-06-10T05:20:01;12.30;;;5.90;;
18532;SDS011;9396;51.510;11.934;2023-06-10T05:22:28;12.10;;;5.23;;
18532;SDS011;9396;51.510;11.934;2023-06-10T05:24:54;12.47;;;5.70;;
18532;SDS011;9396;51.510;11.934;2023-06-10T05:27:21;13.90;;;7.10;;
18532;SDS011;9396;51.510;11.934;2023-06-10T05:29:49;10.17;;;5.70;;
18532;SDS011;9396;51.510;11.934;2023-06-10T05:32:16;9.80;;;5.57;;
18532;SDS011;9396;51.510;11.934;2023-06-10T05:34:43;10.83;;;5.50;;
18532;SDS011;9396;51.510;11.934;2023-06-10T05:37:12;11.13;;;5.63;;
18532;SDS011;9396;51.510;11.934;2023-06-10T05:39:39;12.77;;;5.73;;
18532;SDS011;9396;51.510;11.934;2023-06-10T05:42:06;9.93;;;5.63;;
18532;SDS011;9396;51.510;11.934;2023-06-10T05:44:34;12.10;;;6.03;;
18532;SDS011;9396;51.510;11.934;2023-06-10T05:47:00;9.63;;;6.07;;
18532;SDS011;9396;51.510;11.934;2023-06-10T05:49:28;9.87;;;5.73;;
18532;SDS011;9396;51.510;11.934;2023-06-10T05:51:54;11.27;;;5.83;;
18532;SDS011;9396;51.510;11.934;2023-06-10T05:54:24;13.77;;;6.70;;
18532;SDS011;9396;51.510;11.934;2023-06-10T05:56:51;8.37;;;5.20;;
18532;SDS011;9396;51.510;11.934;2023-06-10T05:59:18;9.30;;;5.60;;
18532;SDS011;9396;51.510;11.934;2023-06-10T06:01:44;11.37;;;5.53;;
18532;SDS011;9396;51.510;11.934;2023-06-10T06:04:11;10.60;;;5.60;;
18532;SDS011;9396;51.510;11.934;2023-06-10T06:06:38;12.97;;;5.70;;
18532;SDS011;9396;51.510;11.934;2023-06-10T06:09:05;10.87;;;5.40;;
18532;SDS011;9396;51.510;11.934;2023-06-10T06:11:34;11.67;;;4.80;;
18532;SDS011;9396;51.510;11.934;2023-06-10T06:14:01;11.23;;;5.70;;
18532;SDS011;9396;51.510;11.934;2023-06-10T06:16:27;10.97;;;5.67;;
18532;SDS011;9396;51.510;11.934;2023-06-10T06:18:54;10.27;;;5.57;;
18532;SDS011;9396;51.510;11.934;2023-06-10T06:21:21;11.13;;;5.73;;
18532;SDS011;9396;51.510;11.934;2023-06-10T06:23:47;8.63;;;5.53;;
18532;SDS011;9396;51.510;11.934;2023-06-10T06:26:14;11.87;;;6.10;;
18532;SDS011;9396;51.510;11.934;2023-06-10T06:28:42;12.60;;;5.50;;
18532;SDS011;9396;51.510;11.934;2023-06-10T06:31:09;5.73;;;4.77;;
18532;SDS011;9396;51.510;11.934;2023-06-10T06:33:36;11.43;;;5.90;;
18532;SDS011;9396;51.510;11.934;2023-06-10T06:36:02;12.10;;;6.03;;
18532;SDS011;9396;51.510;11.934;2023-06-10T06:38:29;10.60;;;5.50;;
18532;SDS011;9396;51.510;11.934;2023-06-10T06:40:56;9.67;;;5.10;;
18532;SDS011;9396;51.510;11.934;2023-06-10T06:43:27;9.77;;;5.67;;
18532;SDS011;9396;51.510;11.934;2023-06-10T06:45:56;10.27;;;5.50;;
18532;SDS011;9396;51.510;11.934;2023-06-10T06:48:22;10.97;;;5.77;;
18532;SDS011;9396;51.510;11.934;2023-06-10T06:50:49;10.73;;;5.43;;
18532;SDS011;9396;51.510;11.934;2023-06-10T06:53:16;10.17;;;5.33;;
18532;SDS011;9396;51.510;11.934;2023-06-10T06:55:42;8.20;;;5.07;;
18532;SDS011;9396;51.510;11.934;2023-06-10T06:58:09;10.20;;;5.33;;
18532;SDS011;9396;51.510;11.934;2023-06-10T07:00:36;8.73;;;4.97;;
18532;SDS011;9396;51.510;11.934;2023-06-10T07:03:04;7.73;;;5.13;;
18532;SDS011;9396;51.510;11.934;2023-06-10T07:05:30;13.50;;;5.80;;
18532;SDS011;9396;51.510;11.934;2023-06-10T07:07:57;8.77;;;5.20;;
18532;SDS011;9396;51.510;11.934;2023-06-10T07:10:24;9.33;;;5.17;;
18532;SDS011;9396;51.510;11.934;2023-06-10T07:12:51;8.93;;;5.30;;
18532;SDS011;9396;51.510;11.934;2023-06-10T07:15:17;9.67;;;5.47;;
18532;SDS011;9396;51.510;11.934;2023-06-10T07:17:44;9.53;;;5.33;;
18532;SDS011;9396;51.510;11.934;2023-06-10T07:20:13;7.93;;;5.10;;
18532;SDS011;9396;51.510;11.934;2023-06-10T07:22:40;12.03;;;4.93;;
18532;SDS011;9396;51.510;11.934;2023-06-10T07:25:07;9.80;;;5.27;;
18532;SDS011;9396;51.510;11.934;2023-06-10T07:27:34;7.03;;;5.23;;
18532;SDS011;9396;51.510;11.934;2023-06-10T07:30:02;12.40;;;5.60;;
18532;SDS011;9396;51.510;11.934;2023-06-10T07:32:29;10.57;;;5.23;;
18532;SDS011;9396;51.510;11.934;2023-06-10T07:34:56;11.20;;;5.37;;
18532;SDS011;9396;51.510;11.934;2023-06-10T07:37:24;9.13;;;5.40;;
18532;SDS011;9396;51.510;11.934;2023-06-10T07:39:51;9.80;;;5.33;;
18532;SDS011;9396;51.510;11.934;2023-06-10T07:42:18;9.40;;;4.90;;
18532;SDS011;9396;51.510;11.934;2023-06-10T07:44:44;13.30;;;4.67;;
18532;SDS011;9396;51.510;11.934;2023-06-10T07:47:11;11.67;;;5.47;;
18532;SDS011;9396;51.510;11.934;2023-06-10T07:49:38;8.47;;;5.33;;
18532;SDS011;9396;51.510;11.934;2023-06-10T07:52:05;7.50;;;5.17;;
18532;SDS011;9396;51.510;11.934;2023-06-10T07:54:33;13.07;;;5.70;;
18532;SDS011;9396;51.510;11.934;2023-06-10T07:57:00;8.97;;;5.47;;
18532;SDS011;9396;51.510;11.934;2023-06-10T07:59:27;11.63;;;5.40;;
18532;SDS011;9396;51.510;11.934;2023-06-10T08:01:53;8.03;;;5.30;;
18532;SDS011;9396;51.510;11.934;2023-06-10T08:04:20;10.70;;;5.83;;
18532;SDS011;9396;51.510;11.934;2023-06-10T08:06:46;8.53;;;5.57;;
18532;SDS011;9396;51.510;11.934;2023-06-10T08:09:13;14.57;;;6.00;;
18532;SDS011;9396;51.510;11.934;2023-06-10T08:11:41;12.87;;;6.60;;
18532;SDS011;9396;51.510;11.934;2023-06-10T08:14:08;9.43;;;5.90;;
18532;SDS011;9396;51.510;11.934;2023-06-10T08:16:34;9.33;;;5.73;;
18532;SDS011;9396;51.510;11.934;2023-06-10T08:19:01;12.73;;;5.93;;
18532;SDS011;9396;51.510;11.934;2023-06-10T08:21:28;8.37;;;5.60;;
18532;SDS011;9396;51.510;11.934;2023-06-10T08:23:54;19.17;;;5.63;;
18532;SDS011;9396;51.510;11.934;2023-06-10T08:26:21;8.50;;;5.83;;
18532;SDS011;9396;51.510;11.934;2023-06-10T08:28:49;30.37;;;6.40;;
18532;SDS011;9396;51.510;11.934;2023-06-10T08:31:16;10.37;;;5.93;;
18532;SDS011;9396;51.510;11.934;2023-06-10T08:33:42;9.50;;;5.50;;
18532;SDS011;9396;51.510;11.934;2023-06-10T08:36:09;10.77;;;5.47;;
18532;SDS011;9396;51.510;11.934;2023-06-10T08:38:36;9.17;;;5.90;;
18532;SDS011;9396;51.510;11.934;2023-06-10T08:41:03;10.93;;;6.57;;
18532;SDS011;9396;51.510;11.934;2023-06-10T08:43:32;13.57;;;6.00;;
18532;SDS011;9396;51.510;11.934;2023-06-10T08:46:04;10.50;;;6.50;;
18532;SDS011;9396;51.510;11.934;2023-06-10T08:48:34;9.33;;;6.77;;
18532;SDS011;9396;51.510;11.934;2023-06-10T08:51:04;11.13;;;7.40;;
18532;SDS011;9396;51.510;11.934;2023-06-10T08:53:31;10.10;;;6.30;;
18532;SDS011;9396;51.510;11.934;2023-06-10T08:56:02;11.10;;;7.00;;
18532;SDS011;9396;51.510;11.934;2023-06-10T08:58:31;9.63;;;6.93;;
18532;SDS011;9396;51.510;11.934;2023-06-10T09:01:06;15.30;;;7.37;;
18532;SDS011;9396;51.510;11.934;2023-06-10T09:03:33;13.30;;;7.00;;
18532;SDS011;9396;51.510;11.934;2023-06-10T09:06:02;10.23;;;6.90;;
18532;SDS011;9396;51.510;11.934;2023-06-10T09:08:31;8.73;;;6.20;;
18532;SDS011;9396;51.510;11.934;2023-06-10T09:11:00;12.03;;;7.37;;
18532;SDS011;9396;51.510;11.934;2023-06-10T09:13:26;8.80;;;6.63;;
18532;SDS011;9396;51.510;11.934;2023-06-10T09:15:53;9.53;;;6.53;;
18532;SDS011;9396;51.510;11.934;2023-06-10T09:18:22;10.90;;;6.67;;
18532;SDS011;9396;51.510;11.934;2023-06-10T09:20:49;11.23;;;6.43;;
18532;SDS011;9396;51.510;11.934;2023-06-10T09:23:16;11.17;;;6.20;;
18532;SDS011;9396;51.510;11.934;2023-06-10T09:25:43;9.90;;;6.13;;
18532;SDS011;9396;51.510;11.934;2023-06-10T09:28:12;9.80;;;6.33;;
18532;SDS011;9396;51.510;11.934;2023-06-10T09:30:41;7.87;;;5.60;;
18532;SDS011;9396;51.510;11.934;2023-06-10T09:33:09;9.43;;;6.03;;
18532;SDS011;9396;51.510;11.934;2023-06-10T09:35:44;10.60;;;5.90;;
18532;SDS011;9396;51.510;11.934;2023-06-10T09:38:12;7.47;;;5.77;;
18532;SDS011;9396;51.510;11.934;2023-06-10T09:40:48;9.67;;;6.07;;
18532;SDS011;9396;51.510;11.934;2023-06-10T09:43:15;8.23;;;5.77;;
18532;SDS011;9396;51.510;11.934;2023-06-10T09:45:41;9.20;;;6.07;;
18532;SDS011;9396;51.510;11.934;2023-06-10T09:48:09;9.13;;;5.83;;
18532;SDS011;9396;51.510;11.934;2023-06-10T09:50:41;10.57;;;5.57;;
18532;SDS011;9396;51.510;11.934;2023-06-10T09:53:08;8.27;;;6.07;;
18532;SDS011;9396;51.510;11.934;2023-06-10T09:55:36;8.73;;;5.87;;
18532;SDS011;9396;51.510;11.934;2023-06-10T09:58:03;10.13;;;6.00;;
18532;SDS011;9396;51.510;11.934;2023-06-10T10:00:31;8.10;;;6.00;;
18532;SDS011;9396;51.510;11.934;2023-06-10T10:02:58;13.37;;;5.70;;
18532;SDS011;9396;51.510;11.934;2023-06-10T10:05:26;10.77;;;6.07;;
18532;SDS011;9396;51.510;11.934;2023-06-10T10:07:56;11.67;;;5.70;;
18532;SDS011;9396;51.510;11.934;2023-06-10T10:10:22;7.37;;;6.03;;
18532;SDS011;9396;51.510;11.934;2023-06-10T10:12:51;10.07;;;6.07;;
18532;SDS011;9396;51.510;11.934;2023-06-10T10:15:21;10.70;;;5.60;;
18532;SDS011;9396;51.510;11.934;2023-06-10T10:17:52;8.43;;;5.90;;
18532;SDS011;9396;51.510;11.934;2023-06-10T10:20:22;8.17;;;5.57;;
18532;SDS011;9396;51.510;11.934;2023-06-10T10:22:53;10.13;;;6.00;;
18532;SDS011;9396;51.510;11.934;2023-06-10T10:25:25;6.73;;;5.20;;
18532;SDS011;9396;51.510;11.934;2023-06-10T10:27:55;9.87;;;5.40;;
18532;SDS011;9396;51.510;11.934;2023-06-10T10:30:25;8.60;;;5.77;;
18532;SDS011;9396;51.510;11.934;2023-06-10T10:32:56;8.93;;;5.30;;
18532;SDS011;9396;51.510;11.934;2023-06-10T10:35:26;8.07;;;4.93;;
18532;SDS011;9396;51.510;11.934;2023-06-10T10:37:53;6.33;;;5.03;;
18532;SDS011;9396;51.510;11.934;2023-06-10T10:40:22;10.77;;;5.60;;
18532;SDS011;9396;51.510;11.934;2023-06-10T10:42:50;8.60;;;5.13;;
18532;SDS011;9396;51.510;11.934;2023-06-10T10:45:18;7.10;;;5.20;;
18532;SDS011;9396;51.510;11.934;2023-06-10T10:47:48;8.77;;;5.43;;
18532;SDS011;9396;51.510;11.934;2023-06-10T10:50:20;8.07;;;6.40;;
18532;SDS011;9396;51.510;11.934;2023-06-10T10:52:54;7.73;;;5.40;;
18532;SDS011;9396;51.510;11.934;2023-06-10T10:55:23;11.27;;;5.70;;
18532;SDS011;9396;51.510;11.934;2023-06-10T10:57:53;9.33;;;5.70;;
18532;SDS011;9396;51.510;11.934;2023-06-10T11:00:27;14.20;;;5.60;;
18532;SDS011;9396;51.510;11.934;2023-06-10T11:02:57;6.70;;;5.60;;
18532;SDS011;9396;51.510;11.934;2023-06-10T11:05:31;7.10;;;5.60;;
18532;SDS011;9396;51.510;11.934;2023-06-10T11:08:01;10.23;;;5.13;;
18532;SDS011;9396;51.510;11.934;2023-06-10T11:10:30;8.40;;;5.13;;
18532;SDS011;9396;51.510;11.934;2023-06-10T11:12:57;6.13;;;5.10;;
18532;SDS011;9396;51.510;11.934;2023-06-10T11:15:25;9.63;;;5.30;;
18532;SDS011;9396;51.510;11.934;2023-06-10T11:18:15;8.87;;;5.57;;
18532;SDS011;9396;51.510;11.934;2023-06-10T11:20:51;11.47;;;6.10;;
18532;SDS011;9396;51.510;11.934;2023-06-10T11:23:26;6.97;;;5.30;;
18532;SDS011;9396;51.510;11.934;2023-06-10T11:26:20;7.60;;;5.10;;
18532;SDS011;9396;51.510;11.934;2023-06-10T11:29:01;7.50;;;5.60;;
18532;SDS011;9396;51.510;11.934;2023-06-10T11:31:30;7.20;;;5.70;;
18532;SDS011;9396;51.510;11.934;2023-06-10T11:33:58;7.13;;;5.63;;
18532;SDS011;9396;51.510;11.934;2023-06-10T11:36:27;6.83;;;5.43;;
18532;SDS011;9396;51.510;11.934;2023-06-10T11:38:56;7.87;;;5.50;;
18532;SDS011;9396;51.510;11.934;2023-06-10T11:41:26;9.17;;;5.83;;
18532;SDS011;9396;51.510;11.934;2023-06-10T11:43:54;9.03;;;5.27;;
18532;SDS011;9396;51.510;11.934;2023-06-10T11:46:21;13.50;;;5.83;;
18532;SDS011;9396;51.510;11.934;2023-06-10T11:48:49;7.37;;;5.50;;
18532;SDS011;9396;51.510;11.934;2023-06-10T11:51:15;10.50;;;5.50;;
18532;SDS011;9396;51.510;11.934;2023-06-10T11:53:43;9.20;;;5.30;;
18532;SDS011;9396;51.510;11.934;2023-06-10T11:56:10;7.17;;;5.37;;
18532;SDS011;9396;51.510;11.934;2023-06-10T11:58:38;11.17;;;5.40;;
18532;SDS011;9396;51.510;11.934;2023-06-10T12:01:09;8.30;;;5.37;;
18532;SDS011;9396;51.510;11.934;2023-06-10T12:03:36;9.63;;;5.20;;
18532;SDS011;9396;51.510;11.934;2023-06-10T12:06:04;7.17;;;5.60;;
18532;SDS011;9396;51.510;11.934;2023-06-10T12:08:31;12.80;;;5.43;;
18532;SDS011;9396;51.510;11.934;2023-06-10T12:10:59;7.23;;;5.90;;
18532;SDS011;9396;51.510;11.934;2023-06-10T12:13:26;7.70;;;5.47;;
18532;SDS011;9396;51.510;11.934;2023-06-10T12:15:54;7.10;;;5.17;;
18532;SDS011;9396;51.510;11.934;2023-06-10T12:18:32;7.73;;;5.53;;
18532;SDS011;9396;51.510;11.934;2023-06-10T12:20:58;7.40;;;5.27;;
18532;SDS011;9396;51.510;11.934;2023-06-10T12:23:25;9.37;;;5.70;;
18532;SDS011;9396;51.510;11.934;2023-06-10T12:25:53;11.13;;;5.60;;
18532;SDS011;9396;51.510;11.934;2023-06-10T12:28:20;8.47;;;5.30;;
18532;SDS011;9396;51.510;11.934;2023-06-10T12:30:48;7.87;;;5.17;;
18532;SDS011;9396;51.510;11.934;2023-06-10T12:33:19;6.73;;;5.37;;
18532;SDS011;9396;51.510;11.934;2023-06-10T12:35:47;10.53;;;5.60;;
18532;SDS011;9396;51.510;11.934;2023-06-10T12:38:18;5.57;;;4.83;;
18532;SDS011;9396;51.510;11.934;2023-06-10T12:40:47;8.53;;;5.87;;
18532;SDS011;9396;51.510;11.934;2023-06-10T12:43:18;9.53;;;5.57;;
18532;SDS011;9396;51.510;11.934;2023-06-10T12:45:45;12.80;;;5.50;;
18532;SDS011;9396;51.510;11.934;2023-06-10T12:48:19;12.13;;;5.57;;
18532;SDS011;9396;51.510;11.934;2023-06-10T12:50:50;10.87;;;5.50;;
18532;SDS011;9396;51.510;11.934;2023-06-10T12:53:17;5.93;;;5.30;;
18532;SDS011;9396;51.510;11.934;2023-06-10T12:55:44;7.43;;;5.50;;
18532;SDS011;9396;51.510;11.934;2023-06-10T12:58:12;9.63;;;5.30;;
18532;SDS011;9396;51.510;11.934;2023-06-10T13:00:39;8.63;;;6.00;;
18532;SDS011;9396;51.510;11.934;2023-06-10T13:03:07;6.07;;;5.47;;
18532;SDS011;9396;51.510;11.934;2023-06-10T13:05:36;7.93;;;5.30;;
18532;SDS011;9396;51.510;11.934;2023-06-10T13:08:04;8.57;;;5.60;;
18532;SDS011;9396;51.510;11.934;2023-06-10T13:10:31;9.63;;;5.50;;
18532;SDS011;9396;51.510;11.934;2023-06-10T13:12:58;9.60;;;5.77;;
18532;SDS011;9396;51.510;11.934;2023-06-10T13:15:25;7.77;;;4.90;;
18532;SDS011;9396;51.510;11.934;2023-06-10T13:17:52;8.00;;;5.80;;
18532;SDS011;9396;51.510;11.934;2023-06-10T13:20:19;8.90;;;5.87;;
18532;SDS011;9396;51.510;11.934;2023-06-10T13:22:48;6.47;;;5.70;;
18532;SDS011;9396;51.510;11.934;2023-06-10T13:25:14;8.73;;;5.67;;
18532;SDS011;9396;51.510;11.934;2023-06-10T13:27:41;5.83;;;5.23;;
18532;SDS011;9396;51.510;11.934;2023-06-10T13:30:09;8.50;;;5.13;;
18532;SDS011;9396;51.510;11.934;2023-06-10T13:32:36;10.43;;;6.00;;
18532;SDS011;9396;51.510;11.934;2023-06-10T13:35:03;6.50;;;5.73;;
18532;SDS011;9396;51.510;11.934;2023-06-10T13:37:31;8.63;;;5.03;;
18532;SDS011;9396;51.510;11.934;2023-06-10T13:40:00;8.20;;;4.60;;
18532;SDS011;9396;51.510;11.934;2023-06-10T13:42:28;7.50;;;5.00;;
18532;SDS011;9396;51.510;11.934;2023-06-10T13:44:55;6.33;;;4.50;;
18532;SDS011;9396;51.510;11.934;2023-06-10T13:47:22;5.80;;;4.53;;
18532;SDS011;9396;51.510;11.934;2023-06-10T13:49:49;10.83;;;4.93;;
18532;SDS011;9396;51.510;11.934;2023-06-10T13:52:16;5.33;;;4.33;;
18532;SDS011;9396;51.510;11.934;2023-06-10T13:54:43;9.00;;;4.97;;
18532;SDS011;9396;51.510;11.934;2023-06-10T13:57:11;5.97;;;4.53;;
18532;SDS011;9396;51.510;11.934;2023-06-10T13:59:38;6.67;;;4.40;;
18532;SDS011;9396;51.510;11.934;2023-06-10T14:02:04;11.67;;;4.80;;
18532;SDS011;9396;51.510;11.934;2023-06-10T14:04:31;7.20;;;5.20;;
18532;SDS011;9396;51.510;11.934;2023-06-10T14:06:58;7.57;;;5.40;;
18532;SDS011;9396;51.510;11.934;2023-06-10T14:09:25;10.67;;;5.80;;
18532;SDS011;9396;51.510;11.934;2023-06-10T14:11:52;6.07;;;4.60;;
18532;SDS011;9396;51.510;11.934;2023-06-10T14:14:20;4.80;;;3.90;;
18532;SDS011;9396;51.510;11.934;2023-06-10T14:16:47;8.43;;;4.00;;
18532;SDS011;9396;51.510;11.934;2023-06-10T14:19:14;5.57;;;3.87;;
18532;SDS011;9396;51.510;11.934;2023-06-10T14:21:40;5.77;;;3.83;;
18532;SDS011;9396;51.510;11.934;2023-06-10T14:24:07;7.67;;;3.30;;
18532;SDS011;9396;51.510;11.934;2023-06-10T14:26:34;7.60;;;4.10;;
18532;SDS011;9396;51.510;11.934;2023-06-10T14:29:00;7.87;;;4.30;;
18532;SDS011;9396;51.510;11.934;2023-06-10T14:31:29;8.10;;;4.87;;
18532;SDS011;9396;51.510;11.934;2023-06-10T14:33:55;7.03;;;4.90;;
18532;SDS011;9396;51.510;11.934;2023-06-10T14:36:22;6.20;;;5.10;;
18532;SDS011;9396;51.510;11.934;2023-06-10T14:38:48;13.00;;;4.97;;
18532;SDS011;9396;51.510;11.934;2023-06-10T14:41:16;6.37;;;4.53;;
18532;SDS011;9396;51.510;11.934;2023-06-10T14:43:42;8.33;;;4.63;;
18532;SDS011;9396;51.510;11.934;2023-06-10T14:46:09;6.93;;;4.40;;
18532;SDS011;9396;51.510;11.934;2023-06-10T14:48:37;5.60;;;4.50;;